sensor_id;sensor_type;location;lat;lon;timestamp;temperature;humidity
17774;DHT22;9011;33.236;-97.118;2022-09-25T00:02:02;33.60;79.20
17774;DHT22;9011;33.236;-97.118;2022-09-25T00:04:31;33.50;78.10
17774;DHT22;9011;33.236;-97.118;2022-09-25T00:06:59;33.30;78.50
17774;DHT22;9011;33.236;-97.118;2022-09-25T00:09:29;33.20;78.00
17774;DHT22;9011;33.236;-97.118;2022-09-25T00:11:57;33.20;78.50
17774;DHT22;9011;33.236;-97.118;2022-09-25T00:14:26;33.10;78.80
17774;DHT22;9011;33.236;-97.118;2022-09-25T00:16:54;32.90;78.90
17774;DHT22;9011;33.236;-97.118;2022-09-25T00:19:22;33.00;79.20
17774;DHT22;9011;33.236;-97.118;2022-09-25T00:22:21;32.80;80.00
17774;DHT22;9011;33.236;-97.118;2022-09-25T00:24:51;32.70;80.00
17774;DHT22;9011;33.236;-97.118;2022-09-25T00:27:19;32.70;80.10
17774;DHT22;9011;33.236;-97.118;2022-09-25T00:29:48;32.60;80.70
17774;DHT22;9011;33.236;-97.118;2022-09-25T00:32:16;32.60;80.90
17774;DHT22;9011;33.236;-97.118;2022-09-25T00:34:44;32.50;81.40
17774;DHT22;9011;33.236;-97.118;2022-09-25T00:37:12;32.50;81.80
17774;DHT22;9011;33.236;-97.118;2022-09-25T00:39:41;32.40;82.00
17774;DHT22;9011;33.236;-97.118;2022-09-25T00:42:12;32.30;82.50
17774;DHT22;9011;33.236;-97.118;2022-09-25T00:44:54;32.30;82.90
17774;DHT22;9011;33.236;-97.118;2022-09-25T00:47:39;32.20;83.50
17774;DHT22;9011;33.236;-97.118;2022-09-25T00:50:18;32.10;83.70
17774;DHT22;9011;33.236;-97.118;2022-09-25T00:52:50;32.00;84.10
17774;DHT22;9011;33.236;-97.118;2022-09-25T00:55:20;31.90;84.30
17774;DHT22;9011;33.236;-97.118;2022-09-25T00:57:52;31.70;84.90
17774;DHT22;9011;33.236;-97.118;2022-09-25T01:00:21;31.60;85.30
17774;DHT22;9011;33.236;-97.118;2022-09-25T01:02:54;31.60;85.80
17774;DHT22;9011;33.236;-97.118;2022-09-25T01:05:27;31.50;85.90
17774;DHT22;9011;33.236;-97.118;2022-09-25T01:07:57;31.30;86.40
17774;DHT22;9011;33.236;-97.118;2022-09-25T01:10:27;31.20;87.60
17774;DHT22;9011;33.236;-97.118;2022-09-25T01:12:58;31.20;87.20
17774;DHT22;9011;33.236;-97.118;2022-09-25T01:15:33;31.00;87.50
17774;DHT22;9011;33.236;-97.118;2022-09-25T01:18:13;30.90;88.20
17774;DHT22;9011;33.236;-97.118;2022-09-25T01:23:56;30.80;89.50
17774;DHT22;9011;33.236;-97.118;2022-09-25T01:26:45;30.60;89.80
17774;DHT22;9011;33.236;-97.118;2022-09-25T01:29:20;30.50;90.10
17774;DHT22;9011;33.236;-97.118;2022-09-25T01:31:55;30.40;90.30
17774;DHT22;9011;33.236;-97.118;2022-09-25T01:34:35;30.20;90.40
17774;DHT22;9011;33.236;-97.118;2022-09-25T01:37:09;30.20;90.60
17774;DHT22;9011;33.236;-97.118;2022-09-25T01:39:45;30.10;90.80
17774;DHT22;9011;33.236;-97.118;2022-09-25T01:42:18;30.10;91.00
17774;DHT22;9011;33.236;-97.118;2022-09-25T01:44:52;29.90;91.10
17774;DHT22;9011;33.236;-97.118;2022-09-25T01:47:25;29.90;91.30
17774;DHT22;9011;33.236;-97.118;2022-09-25T01:49:57;29.80;91.60
17774;DHT22;9011;33.236;-97.118;2022-09-25T01:52:31;29.50;91.80
17774;DHT22;9011;33.236;-97.118;2022-09-25T01:55:07;29.30;92.30
17774;DHT22;9011;33.236;-97.118;2022-09-25T01:57:39;29.30;92.20
17774;DHT22;9011;33.236;-97.118;2022-09-25T02:00:14;29.40;92.50
17774;DHT22;9011;33.236;-97.118;2022-09-25T02:02:51;29.30;92.50
17774;DHT22;9011;33.236;-97.118;2022-09-25T02:05:24;28.90;93.20
17774;DHT22;9011;33.236;-97.118;2022-09-25T02:07:57;29.00;93.20
17774;DHT22;9011;33.236;-97.118;2022-09-25T02:10:30;29.00;93.30
17774;DHT22;9011;33.236;-97.118;2022-09-25T02:13:07;28.90;93.40
17774;DHT22;9011;33.236;-97.118;2022-09-25T02:15:41;28.90;93.40
17774;DHT22;9011;33.236;-97.118;2022-09-25T02:18:12;28.90;93.40
17774;DHT22;9011;33.236;-97.118;2022-09-25T02:21:05;28.80;93.70
17774;DHT22;9011;33.236;-97.118;2022-09-25T02:23:45;28.80;93.90
17774;DHT22;9011;33.236;-97.118;2022-09-25T02:26:20;28.70;94.00
17774;DHT22;9011;33.236;-97.118;2022-09-25T02:28:49;28.70;94.40
17774;DHT22;9011;33.236;-97.118;2022-09-25T02:31:22;28.60;94.50
17774;DHT22;9011;33.236;-97.118;2022-09-25T02:33:53;28.60;94.60
17774;DHT22;9011;33.236;-97.118;2022-09-25T02:36:22;28.60;94.80
17774;DHT22;9011;33.236;-97.118;2022-09-25T02:38:51;28.60;94.80
17774;DHT22;9011;33.236;-97.118;2022-09-25T02:41:36;28.60;94.80
17774;DHT22;9011;33.236;-97.118;2022-09-25T02:44:14;28.60;94.90
17774;DHT22;9011;33.236;-97.118;2022-09-25T02:46:54;28.50;95.10
17774;DHT22;9011;33.236;-97.118;2022-09-25T02:49:32;28.40;95.40
17774;DHT22;9011;33.236;-97.118;2022-09-25T02:52:08;28.40;95.50
17774;DHT22;9011;33.236;-97.118;2022-09-25T02:54:42;28.30;95.80
17774;DHT22;9011;33.236;-97.118;2022-09-25T02:57:15;28.30;96.10
17774;DHT22;9011;33.236;-97.118;2022-09-25T02:59:51;28.30;96.30
17774;DHT22;9011;33.236;-97.118;2022-09-25T03:02:23;28.30;96.50
17774;DHT22;9011;33.236;-97.118;2022-09-25T03:04:54;28.30;96.70
17774;DHT22;9011;33.236;-97.118;2022-09-25T03:07:24;28.30;96.70
17774;DHT22;9011;33.236;-97.118;2022-09-25T03:09:54;28.30;96.80
17774;DHT22;9011;33.236;-97.118;2022-09-25T03:12:23;28.40;97.10
17774;DHT22;9011;33.236;-97.118;2022-09-25T03:14:52;28.40;97.30
17774;DHT22;9011;33.236;-97.118;2022-09-25T03:17:26;28.30;97.50
17774;DHT22;9011;33.236;-97.118;2022-09-25T03:19:54;28.30;97.80
17774;DHT22;9011;33.236;-97.118;2022-09-25T03:22:25;28.30;98.00
17774;DHT22;9011;33.236;-97.118;2022-09-25T03:24:53;28.20;98.20
17774;DHT22;9011;33.236;-97.118;2022-09-25T03:27:21;28.20;98.60
17774;DHT22;9011;33.236;-97.118;2022-09-25T03:29:55;28.20;98.70
17774;DHT22;9011;33.236;-97.118;2022-09-25T03:32:25;28.20;99.00
17774;DHT22;9011;33.236;-97.118;2022-09-25T03:34:53;28.10;99.40
17774;DHT22;9011;33.236;-97.118;2022-09-25T03:37:23;28.00;99.70
17774;DHT22;9011;33.236;-97.118;2022-09-25T03:39:52;28.00;99.90
17774;DHT22;9011;33.236;-97.118;2022-09-25T03:42:20;27.90;99.90
17774;DHT22;9011;33.236;-97.118;2022-09-25T03:44:52;27.80;99.90
17774;DHT22;9011;33.236;-97.118;2022-09-25T03:47:20;27.80;99.90
17774;DHT22;9011;33.236;-97.118;2022-09-25T03:49:50;27.70;99.90
17774;DHT22;9011;33.236;-97.118;2022-09-25T03:52:18;27.70;99.90
17774;DHT22;9011;33.236;-97.118;2022-09-25T03:54:47;27.70;99.90
17774;DHT22;9011;33.236;-97.118;2022-09-25T03:57:15;27.70;99.90
17774;DHT22;9011;33.236;-97.118;2022-09-25T03:59:43;27.60;99.90
17774;DHT22;9011;33.236;-97.118;2022-09-25T04:02:12;27.50;99.90
17774;DHT22;9011;33.236;-97.118;2022-09-25T04:04:40;27.50;99.90
17774;DHT22;9011;33.236;-97.118;2022-09-25T04:07:11;27.40;99.90
17774;DHT22;9011;33.236;-97.118;2022-09-25T04:09:40;27.30;99.90
17774;DHT22;9011;33.236;-97.118;2022-09-25T04:12:08;27.20;99.90
17774;DHT22;9011;33.236;-97.118;2022-09-25T04:14:36;27.10;99.90
17774;DHT22;9011;33.236;-97.118;2022-09-25T04:17:05;27.00;99.90
17774;DHT22;9011;33.236;-97.118;2022-09-25T04:19:33;26.90;99.90
17774;DHT22;9011;33.236;-97.118;2022-09-25T04:22:01;26.80;99.90
17774;DHT22;9011;33.236;-97.118;2022-09-25T04:24:31;26.80;99.90
17774;DHT22;9011;33.236;-97.118;2022-09-25T04:27:19;26.80;99.90
17774;DHT22;9011;33.236;-97.118;2022-09-25T04:29:48;26.80;99.90
17774;DHT22;9011;33.236;-97.118;2022-09-25T04:32:16;26.70;99.90
17774;DHT22;9011;33.236;-97.118;2022-09-25T04:35:01;26.60;99.90
17774;DHT22;9011;33.236;-97.118;2022-09-25T04:37:30;26.60;99.90
17774;DHT22;9011;33.236;-97.118;2022-09-25T04:40:00;26.50;99.90
17774;DHT22;9011;33.236;-97.118;2022-09-25T04:42:28;26.50;99.90
17774;DHT22;9011;33.236;-97.118;2022-09-25T04:44:57;26.50;99.90
17774;DHT22;9011;33.236;-97.118;2022-09-25T04:47:27;26.40;99.90
17774;DHT22;9011;33.236;-97.118;2022-09-25T04:49:55;26.30;99.90
17774;DHT22;9011;33.236;-97.118;2022-09-25T04:52:24;26.30;99.90
17774;DHT22;9011;33.236;-97.118;2022-09-25T04:54:53;26.20;99.90
17774;DHT22;9011;33.236;-97.118;2022-09-25T04:57:23;26.20;99.90
17774;DHT22;9011;33.236;-97.118;2022-09-25T04:59:52;26.20;99.90
17774;DHT22;9011;33.236;-97.118;2022-09-25T05:02:20;26.10;99.90
17774;DHT22;9011;33.236;-97.118;2022-09-25T05:04:53;26.00;99.90
17774;DHT22;9011;33.236;-97.118;2022-09-25T05:07:21;26.00;99.90
17774;DHT22;9011;33.236;-97.118;2022-09-25T05:09:49;26.00;99.90
17774;DHT22;9011;33.236;-97.118;2022-09-25T05:12:18;25.90;99.90
17774;DHT22;9011;33.236;-97.118;2022-09-25T05:14:47;25.90;99.90
17774;DHT22;9011;33.236;-97.118;2022-09-25T05:17:16;25.80;99.90
17774;DHT22;9011;33.236;-97.118;2022-09-25T05:19:44;25.80;99.90
17774;DHT22;9011;33.236;-97.118;2022-09-25T05:22:12;25.80;99.90
17774;DHT22;9011;33.236;-97.118;2022-09-25T05:24:40;25.70;99.90
17774;DHT22;9011;33.236;-97.118;2022-09-25T05:27:09;25.70;99.90
17774;DHT22;9011;33.236;-97.118;2022-09-25T05:29:38;25.70;99.90
17774;DHT22;9011;33.236;-97.118;2022-09-25T05:32:08;25.60;99.90
17774;DHT22;9011;33.236;-97.118;2022-09-25T05:34:36;25.60;99.90
17774;DHT22;9011;33.236;-97.118;2022-09-25T05:37:05;25.60;99.90
17774;DHT22;9011;33.236;-97.118;2022-09-25T05:39:33;25.60;99.90
17774;DHT22;9011;33.236;-97.118;2022-09-25T05:42:01;25.60;99.90
17774;DHT22;9011;33.236;-97.118;2022-09-25T05:44:30;25.60;99.90
17774;DHT22;9011;33.236;-97.118;2022-09-25T05:46:58;25.60;99.90
17774;DHT22;9011;33.236;-97.118;2022-09-25T05:49:28;25.50;99.90
17774;DHT22;9011;33.236;-97.118;2022-09-25T05:51:56;25.40;99.90
17774;DHT22;9011;33.236;-97.118;2022-09-25T05:54:24;25.40;99.90
17774;DHT22;9011;33.236;-97.118;2022-09-25T05:56:53;25.30;99.90
17774;DHT22;9011;33.236;-97.118;2022-09-25T05:59:21;25.40;99.90
17774;DHT22;9011;33.236;-97.118;2022-09-25T06:01:50;25.30;99.90
17774;DHT22;9011;33.236;-97.118;2022-09-25T06:04:18;25.40;99.90
17774;DHT22;9011;33.236;-97.118;2022-09-25T06:06:48;25.40;99.90
17774;DHT22;9011;33.236;-97.118;2022-09-25T06:09:17;25.30;99.90
17774;DHT22;9011;33.236;-97.118;2022-09-25T06:11:45;25.40;99.90
17774;DHT22;9011;33.236;-97.118;2022-09-25T06:14:14;25.40;99.90
17774;DHT22;9011;33.236;-97.118;2022-09-25T06:16:43;25.50;99.90
17774;DHT22;9011;33.236;-97.118;2022-09-25T06:19:11;25.50;99.90
17774;DHT22;9011;33.236;-97.118;2022-09-25T06:21:41;25.50;99.90
17774;DHT22;9011;33.236;-97.118;2022-09-25T06:24:11;25.50;99.90
17774;DHT22;9011;33.236;-97.118;2022-09-25T06:26:39;25.50;99.90
17774;DHT22;9011;33.236;-97.118;2022-09-25T06:29:08;25.50;99.90
17774;DHT22;9011;33.236;-97.118;2022-09-25T06:31:36;25.60;99.90
17774;DHT22;9011;33.236;-97.118;2022-09-25T06:34:05;25.60;99.90
17774;DHT22;9011;33.236;-97.118;2022-09-25T06:36:33;25.50;99.90
17774;DHT22;9011;33.236;-97.118;2022-09-25T06:39:02;25.60;99.90
17774;DHT22;9011;33.236;-97.118;2022-09-25T06:41:32;25.60;99.90
17774;DHT22;9011;33.236;-97.118;2022-09-25T06:44:01;25.70;99.90
17774;DHT22;9011;33.236;-97.118;2022-09-25T06:46:29;25.70;99.90
17774;DHT22;9011;33.236;-97.118;2022-09-25T06:48:57;25.70;99.90
17774;DHT22;9011;33.236;-97.118;2022-09-25T06:51:26;25.80;99.90
17774;DHT22;9011;33.236;-97.118;2022-09-25T06:53:57;25.80;99.90
17774;DHT22;9011;33.236;-97.118;2022-09-25T06:56:26;25.80;99.90
17774;DHT22;9011;33.236;-97.118;2022-09-25T06:58:56;25.90;99.90
17774;DHT22;9011;33.236;-97.118;2022-09-25T07:01:24;25.80;99.90
17774;DHT22;9011;33.236;-97.118;2022-09-25T07:03:52;25.90;99.90
17774;DHT22;9011;33.236;-97.118;2022-09-25T07:06:22;25.90;99.90
17774;DHT22;9011;33.236;-97.118;2022-09-25T07:08:52;25.90;99.90
17774;DHT22;9011;33.236;-97.118;2022-09-25T07:11:24;25.90;99.90
17774;DHT22;9011;33.236;-97.118;2022-09-25T07:13:54;25.90;99.90
17774;DHT22;9011;33.236;-97.118;2022-09-25T07:16:24;25.90;99.90
17774;DHT22;9011;33.236;-97.118;2022-09-25T07:18:53;26.00;99.90
17774;DHT22;9011;33.236;-97.118;2022-09-25T07:21:23;26.00;99.90
17774;DHT22;9011;33.236;-97.118;2022-09-25T07:23:53;26.00;99.90
17774;DHT22;9011;33.236;-97.118;2022-09-25T07:26:23;26.00;99.90
17774;DHT22;9011;33.236;-97.118;2022-09-25T07:28:55;26.00;99.90
17774;DHT22;9011;33.236;-97.118;2022-09-25T07:31:25;26.00;99.90
17774;DHT22;9011;33.236;-97.118;2022-09-25T07:33:54;26.00;99.90
17774;DHT22;9011;33.236;-97.118;2022-09-25T07:36:23;26.10;99.90
17774;DHT22;9011;33.236;-97.118;2022-09-25T07:38:52;26.10;99.90
17774;DHT22;9011;33.236;-97.118;2022-09-25T07:41:21;26.10;99.90
17774;DHT22;9011;33.236;-97.118;2022-09-25T07:43:51;26.10;99.90
17774;DHT22;9011;33.236;-97.118;2022-09-25T07:46:23;26.10;99.90
17774;DHT22;9011;33.236;-97.118;2022-09-25T07:48:51;26.10;99.90
17774;DHT22;9011;33.236;-97.118;2022-09-25T07:51:20;26.10;99.90
17774;DHT22;9011;33.236;-97.118;2022-09-25T07:53:48;26.10;99.90
17774;DHT22;9011;33.236;-97.118;2022-09-25T07:56:17;26.10;99.90
17774;DHT22;9011;33.236;-97.118;2022-09-25T07:58:46;26.10;99.90
17774;DHT22;9011;33.236;-97.118;2022-09-25T08:01:14;26.10;99.90
17774;DHT22;9011;33.236;-97.118;2022-09-25T08:03:44;26.10;99.90
17774;DHT22;9011;33.236;-97.118;2022-09-25T08:06:12;26.10;99.90
17774;DHT22;9011;33.236;-97.118;2022-09-25T08:08:41;26.10;99.90
17774;DHT22;9011;33.236;-97.118;2022-09-25T08:11:11;26.10;99.90
17774;DHT22;9011;33.236;-97.118;2022-09-25T08:13:40;26.10;99.90
17774;DHT22;9011;33.236;-97.118;2022-09-25T08:16:10;26.10;99.90
17774;DHT22;9011;33.236;-97.118;2022-09-25T08:18:38;26.10;99.90
17774;DHT22;9011;33.236;-97.118;2022-09-25T08:21:09;26.10;99.90
17774;DHT22;9011;33.236;-97.118;2022-09-25T08:23:40;26.10;99.90
17774;DHT22;9011;33.236;-97.118;2022-09-25T08:26:08;26.00;99.90
17774;DHT22;9011;33.236;-97.118;2022-09-25T08:28:36;26.00;99.90
17774;DHT22;9011;33.236;-97.118;2022-09-25T08:31:05;26.00;99.90
17774;DHT22;9011;33.236;-97.118;2022-09-25T08:33:34;26.00;99.90
17774;DHT22;9011;33.236;-97.118;2022-09-25T08:36:03;26.00;99.90
17774;DHT22;9011;33.236;-97.118;2022-09-25T08:38:33;26.00;99.90
17774;DHT22;9011;33.236;-97.118;2022-09-25T08:41:04;26.00;99.90
17774;DHT22;9011;33.236;-97.118;2022-09-25T08:43:36;26.00;99.90
17774;DHT22;9011;33.236;-97.118;2022-09-25T08:46:19;26.00;99.90
17774;DHT22;9011;33.236;-97.118;2022-09-25T08:49:07;26.00;99.90
17774;DHT22;9011;33.236;-97.118;2022-09-25T08:51:39;26.00;99.90
17774;DHT22;9011;33.236;-97.118;2022-09-25T08:54:19;26.00;99.90
17774;DHT22;9011;33.236;-97.118;2022-09-25T08:56:50;26.00;99.90
17774;DHT22;9011;33.236;-97.118;2022-09-25T08:59:23;26.00;99.90
17774;DHT22;9011;33.236;-97.118;2022-09-25T09:01:57;26.00;99.90
17774;DHT22;9011;33.236;-97.118;2022-09-25T09:04:28;26.00;99.90
17774;DHT22;9011;33.236;-97.118;2022-09-25T09:07:03;26.00;99.90
17774;DHT22;9011;33.236;-97.118;2022-09-25T09:09:38;26.00;99.90
17774;DHT22;9011;33.236;-97.118;2022-09-25T09:12:11;25.90;99.90
17774;DHT22;9011;33.236;-97.118;2022-09-25T09:14:43;25.90;99.90
17774;DHT22;9011;33.236;-97.118;2022-09-25T09:17:15;25.90;99.90
17774;DHT22;9011;33.236;-97.118;2022-09-25T09:19:51;25.90;99.90
17774;DHT22;9011;33.236;-97.118;2022-09-25T09:22:25;25.80;99.90
17774;DHT22;9011;33.236;-97.118;2022-09-25T09:25:03;25.80;99.90
17774;DHT22;9011;33.236;-97.118;2022-09-25T09:27:52;25.80;99.90
17774;DHT22;9011;33.236;-97.118;2022-09-25T09:30:31;25.70;99.90
17774;DHT22;9011;33.236;-97.118;2022-09-25T09:33:24;25.70;99.90
17774;DHT22;9011;33.236;-97.118;2022-09-25T09:36:02;25.70;99.90
17774;DHT22;9011;33.236;-97.118;2022-09-25T09:38:39;25.70;99.90
17774;DHT22;9011;33.236;-97.118;2022-09-25T09:41:34;25.60;99.90
17774;DHT22;9011;33.236;-97.118;2022-09-25T09:44:16;25.50;99.90
17774;DHT22;9011;33.236;-97.118;2022-09-25T09:46:53;25.50;99.90
17774;DHT22;9011;33.236;-97.118;2022-09-25T09:49:30;25.40;99.90
17774;DHT22;9011;33.236;-97.118;2022-09-25T09:52:06;25.40;99.90
17774;DHT22;9011;33.236;-97.118;2022-09-25T09:54:39;25.30;99.90
17774;DHT22;9011;33.236;-97.118;2022-09-25T09:57:15;25.40;99.90
17774;DHT22;9011;33.236;-97.118;2022-09-25T09:59:46;25.30;99.90
17774;DHT22;9011;33.236;-97.118;2022-09-25T10:02:25;25.30;99.90
17774;DHT22;9011;33.236;-97.118;2022-09-25T10:04:58;25.30;99.90
17774;DHT22;9011;33.236;-97.118;2022-09-25T10:07:29;25.20;99.90
17774;DHT22;9011;33.236;-97.118;2022-09-25T10:09:58;25.20;99.90
17774;DHT22;9011;33.236;-97.118;2022-09-25T10:12:31;25.10;99.90
17774;DHT22;9011;33.236;-97.118;2022-09-25T10:15:03;25.10;99.90
17774;DHT22;9011;33.236;-97.118;2022-09-25T10:17:34;25.00;99.90
17774;DHT22;9011;33.236;-97.118;2022-09-25T10:20:13;25.00;99.90
17774;DHT22;9011;33.236;-97.118;2022-09-25T10:22:44;25.00;99.90
17774;DHT22;9011;33.236;-97.118;2022-09-25T10:25:13;25.00;99.90
17774;DHT22;9011;33.236;-97.118;2022-09-25T10:27:43;25.00;99.90
17774;DHT22;9011;33.236;-97.118;2022-09-25T10:30:17;24.90;99.90
17774;DHT22;9011;33.236;-97.118;2022-09-25T10:32:56;24.90;99.90
17774;DHT22;9011;33.236;-97.118;2022-09-25T10:35:28;25.00;99.90
17774;DHT22;9011;33.236;-97.118;2022-09-25T10:38:27;24.90;99.90
17774;DHT22;9011;33.236;-97.118;2022-09-25T10:41:00;24.90;99.90
17774;DHT22;9011;33.236;-97.118;2022-09-25T10:43:31;24.90;99.90
17774;DHT22;9011;33.236;-97.118;2022-09-25T10:46:10;24.90;99.90
17774;DHT22;9011;33.236;-97.118;2022-09-25T10:48:39;24.90;99.90
17774;DHT22;9011;33.236;-97.118;2022-09-25T10:51:25;24.90;99.90
17774;DHT22;9011;33.236;-97.118;2022-09-25T10:54:10;24.90;99.90
17774;DHT22;9011;33.236;-97.118;2022-09-25T10:56:39;24.80;99.90
17774;DHT22;9011;33.236;-97.118;2022-09-25T10:59:15;24.80;99.90
17774;DHT22;9011;33.236;-97.118;2022-09-25T11:01:45;24.90;99.90
17774;DHT22;9011;33.236;-97.118;2022-09-25T11:04:16;24.90;99.90
17774;DHT22;9011;33.236;-97.118;2022-09-25T11:06:47;24.90;99.90
17774;DHT22;9011;33.236;-97.118;2022-09-25T11:09:19;24.90;99.90
17774;DHT22;9011;33.236;-97.118;2022-09-25T11:11:50;24.80;99.90
17774;DHT22;9011;33.236;-97.118;2022-09-25T11:14:23;24.80;99.90
17774;DHT22;9011;33.236;-97.118;2022-09-25T11:16:59;24.90;99.90
17774;DHT22;9011;33.236;-97.118;2022-09-25T11:19:29;24.80;99.90
17774;DHT22;9011;33.236;-97.118;2022-09-25T11:22:10;24.90;99.90
17774;DHT22;9011;33.236;-97.118;2022-09-25T11:24:55;24.80;99.90
17774;DHT22;9011;33.236;-97.118;2022-09-25T11:27:33;24.90;99.90
17774;DHT22;9011;33.236;-97.118;2022-09-25T11:30:05;24.90;99.90
17774;DHT22;9011;33.236;-97.118;2022-09-25T11:32:42;24.90;99.90
17774;DHT22;9011;33.236;-97.118;2022-09-25T11:35:34;25.00;99.90
17774;DHT22;9011;33.236;-97.118;2022-09-25T11:38:11;24.90;99.90
17774;DHT22;9011;33.236;-97.118;2022-09-25T11:40:53;24.90;99.90
17774;DHT22;9011;33.236;-97.118;2022-09-25T11:43:45;24.90;99.90
17774;DHT22;9011;33.236;-97.118;2022-09-25T11:46:25;24.90;99.90
17774;DHT22;9011;33.236;-97.118;2022-09-25T11:49:02;24.90;99.90
17774;DHT22;9011;33.236;-97.118;2022-09-25T11:55:02;24.90;99.90
17774;DHT22;9011;33.236;-97.118;2022-09-25T11:57:47;24.90;99.90
17774;DHT22;9011;33.236;-97.118;2022-09-25T12:00:20;24.90;99.90
17774;DHT22;9011;33.236;-97.118;2022-09-25T12:03:09;24.90;99.90
17774;DHT22;9011;33.236;-97.118;2022-09-25T12:05:55;24.80;99.90
17774;DHT22;9011;33.236;-97.118;2022-09-25T12:08:33;24.80;99.90
17774;DHT22;9011;33.236;-97.118;2022-09-25T12:11:09;24.80;99.90
17774;DHT22;9011;33.236;-97.118;2022-09-25T12:13:43;24.80;99.90
17774;DHT22;9011;33.236;-97.118;2022-09-25T12:16:20;24.80;99.90
17774;DHT22;9011;33.236;-97.118;2022-09-25T12:19:12;24.80;99.90
17774;DHT22;9011;33.236;-97.118;2022-09-25T12:21:47;24.90;99.90
17774;DHT22;9011;33.236;-97.118;2022-09-25T12:24:29;24.90;99.90
17774;DHT22;9011;33.236;-97.118;2022-09-25T12:27:08;24.90;99.90
17774;DHT22;9011;33.236;-97.118;2022-09-25T12:29:54;24.90;99.90
17774;DHT22;9011;33.236;-97.118;2022-09-25T12:32:29;24.90;99.90
17774;DHT22;9011;33.236;-97.118;2022-09-25T12:35:19;24.90;99.90
17774;DHT22;9011;33.236;-97.118;2022-09-25T12:37:55;24.90;99.90
17774;DHT22;9011;33.236;-97.118;2022-09-25T12:40:30;24.90;99.90
17774;DHT22;9011;33.236;-97.118;2022-09-25T12:43:02;24.90;99.90
17774;DHT22;9011;33.236;-97.118;2022-09-25T12:45:38;24.90;99.90
17774;DHT22;9011;33.236;-97.118;2022-09-25T12:48:13;24.90;99.90
17774;DHT22;9011;33.236;-97.118;2022-09-25T12:50:49;24.90;99.90
17774;DHT22;9011;33.236;-97.118;2022-09-25T12:53:26;24.90;99.90
17774;DHT22;9011;33.236;-97.118;2022-09-25T12:55:59;24.90;99.90
17774;DHT22;9011;33.236;-97.118;2022-09-25T12:58:40;24.90;99.90
17774;DHT22;9011;33.236;-97.118;2022-09-25T13:01:13;24.90;99.90
17774;DHT22;9011;33.236;-97.118;2022-09-25T13:03:47;24.90;99.90
17774;DHT22;9011;33.236;-97.118;2022-09-25T13:06:27;24.90;99.90
17774;DHT22;9011;33.236;-97.118;2022-09-25T13:09:05;25.00;99.90
17774;DHT22;9011;33.236;-97.118;2022-09-25T13:11:38;25.00;99.90
17774;DHT22;9011;33.236;-97.118;2022-09-25T13:14:29;25.10;99.90
17774;DHT22;9011;33.236;-97.118;2022-09-25T13:16:58;25.10;99.90
17774;DHT22;9011;33.236;-97.118;2022-09-25T13:19:27;25.20;99.90
17774;DHT22;9011;33.236;-97.118;2022-09-25T13:22:05;25.30;99.90
17774;DHT22;9011;33.236;-97.118;2022-09-25T13:24:41;25.30;99.90
17774;DHT22;9011;33.236;-97.118;2022-09-25T13:27:14;25.30;99.90
17774;DHT22;9011;33.236;-97.118;2022-09-25T13:29:51;25.40;99.90
17774;DHT22;9011;33.236;-97.118;2022-09-25T13:32:22;25.50;99.90
17774;DHT22;9011;33.236;-97.118;2022-09-25T13:34:55;25.60;99.90
17774;DHT22;9011;33.236;-97.118;2022-09-25T13:37:27;25.60;99.90
17774;DHT22;9011;33.236;-97.118;2022-09-25T13:39:57;25.70;99.90
17774;DHT22;9011;33.236;-97.118;2022-09-25T13:42:44;25.80;99.90
17774;DHT22;9011;33.236;-97.118;2022-09-25T13:45:29;25.90;99.90
17774;DHT22;9011;33.236;-97.118;2022-09-25T13:48:08;26.00;99.90
17774;DHT22;9011;33.236;-97.118;2022-09-25T13:50:44;26.10;99.90
17774;DHT22;9011;33.236;-97.118;2022-09-25T13:53:23;26.20;99.90
17774;DHT22;9011;33.236;-97.118;2022-09-25T13:56:23;26.40;99.90
17774;DHT22;9011;33.236;-97.118;2022-09-25T13:59:22;26.50;99.90
17774;DHT22;9011;33.236;-97.118;2022-09-25T14:01:54;26.70;99.90
17774;DHT22;9011;33.236;-97.118;2022-09-25T14:04:30;26.70;99.90
17774;DHT22;9011;33.236;-97.118;2022-09-25T14:07:17;26.80;99.90
17774;DHT22;9011;33.236;-97.118;2022-09-25T14:09:49;26.80;99.90
17774;DHT22;9011;33.236;-97.118;2022-09-25T14:12:31;26.90;99.90
17774;DHT22;9011;33.236;-97.118;2022-09-25T14:15:05;26.90;99.90
17774;DHT22;9011;33.236;-97.118;2022-09-25T14:17:35;27.00;99.90
17774;DHT22;9011;33.236;-97.118;2022-09-25T14:20:06;27.10;99.90
17774;DHT22;9011;33.236;-97.118;2022-09-25T14:22:51;27.20;99.90
17774;DHT22;9011;33.236;-97.118;2022-09-25T14:25:27;27.30;99.90
17774;DHT22;9011;33.236;-97.118;2022-09-25T14:27:59;27.30;99.90
17774;DHT22;9011;33.236;-97.118;2022-09-25T14:30:28;27.50;99.90
17774;DHT22;9011;33.236;-97.118;2022-09-25T14:33:12;27.70;99.90
17774;DHT22;9011;33.236;-97.118;2022-09-25T14:35:47;27.90;99.90
17774;DHT22;9011;33.236;-97.118;2022-09-25T14:44:39;28.40;99.90
17774;DHT22;9011;33.236;-97.118;2022-09-25T14:47:11;28.50;99.90
17774;DHT22;9011;33.236;-97.118;2022-09-25T14:49:41;28.70;99.90
17774;DHT22;9011;33.236;-97.118;2022-09-25T14:52:13;28.80;99.90
17774;DHT22;9011;33.236;-97.118;2022-09-25T14:54:45;28.90;99.90
17774;DHT22;9011;33.236;-97.118;2022-09-25T14:57:18;29.00;99.90
17774;DHT22;9011;33.236;-97.118;2022-09-25T14:59:52;29.20;99.90
17774;DHT22;9011;33.236;-97.118;2022-09-25T15:02:25;29.40;99.90
17774;DHT22;9011;33.236;-97.118;2022-09-25T15:07:43;30.00;99.90
17774;DHT22;9011;33.236;-97.118;2022-09-25T15:10:37;30.30;99.90
17774;DHT22;9011;33.236;-97.118;2022-09-25T15:13:13;30.60;99.90
17774;DHT22;9011;33.236;-97.118;2022-09-25T15:15:43;30.80;99.90
17774;DHT22;9011;33.236;-97.118;2022-09-25T15:18:41;30.70;99.90
17774;DHT22;9011;33.236;-97.118;2022-09-25T15:21:15;30.80;99.90
17774;DHT22;9011;33.236;-97.118;2022-09-25T15:23:45;30.80;99.90
17774;DHT22;9011;33.236;-97.118;2022-09-25T15:26:15;31.00;99.90
17774;DHT22;9011;33.236;-97.118;2022-09-25T15:28:46;31.00;99.90
17774;DHT22;9011;33.236;-97.118;2022-09-25T15:31:15;31.00;99.90
17774;DHT22;9011;33.236;-97.118;2022-09-25T15:33:43;31.10;99.90
17774;DHT22;9011;33.236;-97.118;2022-09-25T15:36:16;31.30;99.90
17774;DHT22;9011;33.236;-97.118;2022-09-25T15:38:52;31.30;99.90
17774;DHT22;9011;33.236;-97.118;2022-09-25T15:41:21;31.40;99.90
17774;DHT22;9011;33.236;-97.118;2022-09-25T15:43:51;31.60;99.90
17774;DHT22;9011;33.236;-97.118;2022-09-25T15:46:39;31.70;99.90
17774;DHT22;9011;33.236;-97.118;2022-09-25T15:49:16;31.70;99.90
17774;DHT22;9011;33.236;-97.118;2022-09-25T15:51:49;31.70;99.90
17774;DHT22;9011;33.236;-97.118;2022-09-25T15:54:35;31.90;99.90
17774;DHT22;9011;33.236;-97.118;2022-09-25T15:57:07;32.00;99.90
17774;DHT22;9011;33.236;-97.118;2022-09-25T15:59:39;32.20;99.90
17774;DHT22;9011;33.236;-97.118;2022-09-25T16:02:22;32.30;99.90
17774;DHT22;9011;33.236;-97.118;2022-09-25T16:05:09;32.40;99.90
17774;DHT22;9011;33.236;-97.118;2022-09-25T16:07:38;32.40;99.90
17774;DHT22;9011;33.236;-97.118;2022-09-25T16:10:28;32.30;99.90